Time;durP1;ratioP1;P1;durP2;ratioP2;P2;SDS_P1;SDS_P2;PMS_P1;PMS_P2;Temp;Humidity;BMP_temperature;BMP_pressure;BME280_temperature;BME280_humidity;BME280_pressure;Samples;Min_cycle;Max_cycle;Signal;HPM_P1;HPM_P2
2022/06/06 00:00:40;;;;;;;10.63;5.15;;;;;;;20.65;62.02;98778.06;5128159;27;20034;-90
2022/06/06 00:03:06;;;;;;;19.45;5.00;;;;;;;20.75;61.28;98771.03;5128519;27;20043;-89
2022/06/06 00:05:32;;;;;;;12.95;4.80;;;;;;;20.69;61.23;98757.97;5127802;27;20049;-88
2022/06/06 00:07:58;;;;;;;16.77;5.03;;;;;;;20.76;61.10;98782.75;5129057;27;20535;-90
2022/06/06 00:10:24;;;;;;;13.38;5.13;;;;;;;20.58;61.05;98758.72;5127969;27;20035;-90
2022/06/06 00:12:52;;;;;;;18.77;5.45;;;;;;;20.64;61.14;98785.28;5128078;28;20450;-89
2022/06/06 00:15:18;;;;;;;13.88;5.07;;;;;;;20.49;61.24;98767.38;5126715;28;20071;-89
2022/06/06 00:17:43;;;;;;;14.02;4.75;;;;;;;20.49;61.87;98787.19;5128328;28;20522;-90
2022/06/06 00:20:10;;;;;;;11.38;4.88;;;;;;;20.38;62.82;98789.72;5128056;27;20134;-89
2022/06/06 00:22:35;;;;;;;16.33;4.90;;;;;;;20.14;63.28;98776.03;5128515;28;20040;-89
2022/06/06 00:25:01;;;;;;;15.43;5.25;;;;;;;20.02;63.17;98766.06;5128394;27;20047;-88
2022/06/06 00:27:27;;;;;;;16.33;4.95;;;;;;;19.99;64.13;98790.53;5128862;27;20036;-89
2022/06/06 00:29:54;;;;;;;12.27;5.25;;;;;;;19.69;64.93;98778.03;5128545;27;20035;-89
2022/06/06 00:35:14;;;;;;;17.92;5.70;;;;;;;19.49;66.92;98788.25;5109176;27;20373;-88
2022/06/06 00:37:42;;;;;;;17.40;5.38;;;;;;;19.47;66.16;98782.13;5108783;28;20079;-88
2022/06/06 00:40:11;;;;;;;16.10;5.38;;;;;;;19.47;66.24;98781.22;5107705;28;20040;-89
2022/06/06 00:42:39;;;;;;;14.43;5.47;;;;;;;19.29;67.46;98773.34;5109116;28;20039;-89
2022/06/06 00:45:33;;;;;;;16.98;5.55;;;;;;;19.24;67.34;98766.50;5109003;28;20048;-88
2022/06/06 00:48:18;;;;;;;18.15;5.85;;;;;;;19.17;67.00;98765.13;5065865;28;20044;-88
2022/06/06 00:50:50;;;;;;;13.68;5.15;;;;;;;19.09;67.79;98752.16;5065395;28;20296;-89
2022/06/06 00:53:20;;;;;;;15.15;5.35;;;;;;;19.03;68.02;98766.00;5064630;28;20037;-90
2022/06/06 00:55:51;;;;;;;14.63;5.53;;;;;;;18.96;69.04;98749.34;5066287;28;20143;-89
2022/06/06 00:58:22;;;;;;;14.85;5.80;;;;;;;19.03;68.62;98749.84;5065735;28;20033;-90
2022/06/06 01:00:50;;;;;;;17.50;5.93;;;;;;;18.97;68.95;98747.53;5066072;28;20083;-88
2022/06/06 01:03:18;;;;;;;19.23;6.10;;;;;;;19.02;69.35;98756.22;5065906;28;20048;-88
2022/06/06 01:05:48;;;;;;;15.25;5.82;;;;;;;18.98;69.66;98752.81;5066015;28;20044;-88
2022/06/06 01:08:16;;;;;;;16.55;6.20;;;;;;;18.86;70.25;98748.19;5065840;28;20128;-89
2022/06/06 01:10:42;;;;;;;15.07;5.60;;;;;;;18.94;70.27;98759.34;5062737;28;20102;-87
2022/06/06 01:13:09;;;;;;;21.00;6.10;;;;;;;18.85;70.25;98739.25;5065308;28;20048;-88
2022/06/06 01:15:47;;;;;;;12.80;5.40;;;;;;;18.83;70.60;98734.91;5064340;28;20044;-88
2022/06/06 01:18:21;;;;;;;14.63;6.72;;;;;;;18.84;70.55;98736.63;5064687;28;20203;-88
2022/06/06 01:21:19;;;;;;;14.15;6.32;;;;;;;18.77;71.03;98732.56;5064435;28;20048;-88
2022/06/06 01:24:02;;;;;;;18.77;6.57;;;;;;;18.68;71.82;98729.44;5086702;28;20051;-88
2022/06/06 01:26:51;;;;;;;11.55;6.32;;;;;;;18.61;72.11;98722.72;5108101;28;20039;-87
2022/06/06 01:29:22;;;;;;;24.42;6.63;;;;;;;18.43;72.89;98703.16;5107706;28;20060;-90
2022/06/06 01:31:51;;;;;;;16.02;5.95;;;;;;;18.47;73.46;98726.22;5107754;28;20045;-89
2022/06/06 01:34:23;;;;;;;13.30;6.40;;;;;;;18.38;73.35;98704.38;5107326;28;20127;-88
2022/06/06 01:36:51;;;;;;;16.35;6.20;;;;;;;18.35;73.62;98705.44;5107218;28;20451;-88
2022/06/06 01:39:19;;;;;;;17.87;7.77;;;;;;;18.44;73.25;98717.47;5106295;28;20464;-88
2022/06/06 01:41:55;;;;;;;14.80;6.50;;;;;;;18.37;74.09;98718.81;5108552;28;20131;-88
2022/06/06 01:44:29;;;;;;;17.75;7.10;;;;;;;18.34;73.61;98717.16;5107011;28;20044;-88
2022/06/06 01:46:58;;;;;;;19.38;6.50;;;;;;;18.29;74.33;98710.31;5093255;28;20040;-89
2022/06/06 01:49:24;;;;;;;17.27;6.68;;;;;;;18.27;74.17;98719.34;5093895;28;20493;-88
2022/06/06 01:52:01;;;;;;;16.08;6.20;;;;;;;18.23;74.14;98722.31;5092291;28;20113;-88
2022/06/06 01:54:28;;;;;;;18.80;6.70;;;;;;;18.29;73.87;98715.72;5093503;28;20508;-88
2022/06/06 01:56:54;;;;;;;15.70;6.80;;;;;;;18.18;74.00;98702.88;5093407;28;20024;-89
2022/06/06 01:59:22;;;;;;;17.05;6.05;;;;;;;18.21;74.09;98730.47;5094423;28;20052;-88
2022/06/06 02:01:47;;;;;;;14.85;6.63;;;;;;;18.20;74.54;98714.44;5094205;28;20036;-89
2022/06/06 02:04:13;;;;;;;18.50;6.70;;;;;;;17.99;74.96;98706.66;5094121;28;20062;-89
2022/06/06 02:06:39;;;;;;;18.50;6.28;;;;;;;18.09;74.81;98722.28;5094845;28;20046;-89
2022/06/06 02:09:08;;;;;;;13.43;7.13;;;;;;;18.01;75.30;98720.88;5093604;28;20127;-88
2022/06/06 02:11:34;;;;;;;19.55;7.82;;;;;;;18.02;75.32;98719.03;5093517;28;20036;-89
2022/06/06 02:14:00;;;;;;;14.93;6.60;;;;;;;17.90;75.90;98704.50;5093446;28;20123;-89
2022/06/06 02:16:28;;;;;;;16.42;6.75;;;;;;;17.92;75.70;98717.88;5093294;28;20028;-88
2022/06/06 02:18:53;;;;;;;18.05;6.70;;;;;;;17.95;76.06;98731.13;5093843;28;20032;-88
2022/06/06 02:21:19;;;;;;;19.15;6.20;;;;;;;17.94;77.57;98722.19;5093597;28;20738;-88
2022/06/06 02:23:48;;;;;;;13.10;6.65;;;;;;;17.93;76.68;98727.66;5093664;28;20043;-88
2022/06/06 02:26:14;;;;;;;20.67;7.13;;;;;;;17.85;78.11;98723.59;5092592;28;20127;-89
2022/06/06 02:28:40;;;;;;;16.08;7.22;;;;;;;17.83;78.13;98720.13;5093891;28;20124;-88
2022/06/06 02:31:06;;;;;;;17.83;6.55;;;;;;;17.68;79.01;98707.53;5093697;28;20458;-90
2022/06/06 02:33:34;;;;;;;18.80;7.50;;;;;;;17.70;78.92;98715.53;5093796;28;20070;-90
2022/06/06 02:36:00;;;;;;;18.70;6.85;;;;;;;17.73;79.02;98726.94;5092259;28;20036;-89
2022/06/06 02:38:27;;;;;;;17.88;7.05;;;;;;;17.70;79.41;98729.81;5094082;28;20897;-89
2022/06/06 02:40:53;;;;;;;15.93;7.25;;;;;;;17.61;80.19;98722.28;5092948;28;20051;-89
2022/06/06 02:43:21;;;;;;;19.55;7.75;;;;;;;17.66;79.81;98730.94;5093530;28;20393;-89
2022/06/06 02:45:48;;;;;;;14.50;6.80;;;;;;;17.65;80.10;98730.09;5092925;28;20121;-89
2022/06/06 02:48:15;;;;;;;20.65;9.10;;;;;;;17.60;79.69;98732.16;5093461;28;21021;-89
2022/06/06 02:50:42;;;;;;;17.95;7.47;;;;;;;17.58;80.27;98730.50;5092402;28;20036;-89
2022/06/06 02:53:08;;;;;;;17.77;7.30;;;;;;;17.48;80.71;98734.66;5093463;28;20040;-89
2022/06/06 02:55:34;;;;;;;14.85;7.50;;;;;;;17.41;81.41;98729.66;5093335;28;20382;-88
2022/06/06 02:58:01;;;;;;;17.23;6.72;;;;;;;17.39;81.15;98726.19;5091925;28;20564;-89
2022/06/06 03:00:29;;;;;;;15.30;7.63;;;;;;;17.39;81.16;98725.28;5093768;28;20439;-89
2022/06/06 03:02:56;;;;;;;21.88;7.95;;;;;;;17.43;81.10;98734.91;5092916;28;20051;-89
2022/06/06 03:05:28;;;;;;;17.85;7.68;;;;;;;17.20;81.21;98715.56;5093391;28;20043;-89
2022/06/06 03:08:09;;;;;;;16.50;6.90;;;;;;;17.25;81.69;98731.44;5093450;28;20058;-90
2022/06/06 03:10:49;;;;;;;17.23;6.97;;;;;;;17.21;81.02;98727.19;5092838;28;20131;-89
2022/06/06 03:13:29;;;;;;;17.10;7.15;;;;;;;17.25;82.41;98740.38;5091654;28;20585;-88
2022/06/06 03:22:28;;;;;;;22.08;7.57;;;;;;;17.39;82.89;98736.94;5151157;27;20327;-90
2022/06/06 03:25:01;;;;;;;17.60;7.47;;;;;;;17.28;83.54;98750.06;5150338;27;20466;-91
2022/06/06 03:27:39;;;;;;;14.68;7.03;;;;;;;17.20;83.89;98746.97;5146343;27;20053;-90
2022/06/06 03:30:10;;;;;;;17.05;7.85;;;;;;;17.20;83.98;98746.97;5151210;27;20027;-90
2022/06/06 03:32:56;;;;;;;18.83;7.60;;;;;;;17.11;84.40;98742.06;5151041;27;20130;-91
2022/06/06 03:35:33;;;;;;;17.45;7.85;;;;;;;17.09;84.43;98744.84;5149369;27;20027;-90
2022/06/06 03:38:05;;;;;;;19.15;7.60;;;;;;;17.14;84.45;98742.78;5150658;27;20429;-90
2022/06/06 03:40:40;;;;;;;15.68;7.32;;;;;;;17.01;85.26;98737.19;5150273;27;20031;-91
2022/06/06 03:43:14;;;;;;;19.33;8.15;;;;;;;17.04;85.56;98736.16;5149583;27;20121;-90
2022/06/06 03:45:47;;;;;;;18.85;7.60;;;;;;;17.07;85.32;98746.75;5148969;27;20442;-90
2022/06/06 03:48:28;;;;;;;14.55;7.95;;;;;;;17.07;85.83;98748.53;5150537;27;20075;-91
2022/06/06 03:51:03;;;;;;;20.10;8.23;;;;;;;17.03;85.72;98747.88;5149693;27;20042;-91
2022/06/06 03:53:37;;;;;;;18.23;7.35;;;;;;;17.09;86.26;98746.66;5150306;27;20042;-89
2022/06/06 03:56:17;;;;;;;21.20;8.75;;;;;;;17.07;86.64;98741.38;5150318;27;20039;-91
2022/06/06 03:58:44;;;;;;;17.05;7.75;;;;;;;16.97;86.58;98727.56;5150167;27;20499;-90
2022/06/06 04:01:13;;;;;;;15.93;8.35;;;;;;;17.12;86.17;98759.94;5148582;27;20060;-91
2022/06/06 04:03:40;;;;;;;17.38;8.07;;;;;;;17.09;86.39;98757.41;5149898;27;20181;-90
2022/06/06 04:06:06;;;;;;;18.65;9.10;;;;;;;17.01;86.39;98755.13;5149013;27;20045;-90
2022/06/06 04:08:33;;;;;;;23.63;8.23;;;;;;;16.97;86.05;98756.25;5149965;27;20043;-89
2022/06/06 04:11:12;;;;;;;20.15;8.35;;;;;;;17.07;86.65;98773.63;5150252;27;20046;-91
2022/06/06 04:13:44;;;;;;;17.05;7.85;;;;;;;17.08;85.33;98779.84;5150138;27;20042;-89
2022/06/06 04:16:20;;;;;;;14.60;7.97;;;;;;;17.03;85.23;98770.22;5150428;27;20043;-89
2022/06/06 04:18:58;;;;;;;16.52;8.27;;;;;;;17.09;85.37;98778.88;5151536;27;20109;-91
2022/06/06 04:21:33;;;;;;;16.75;7.55;;;;;;;17.10;85.34;98781.50;5148537;27;20042;-91
2022/06/06 04:24:22;;;;;;;20.20;8.18;;;;;;;17.10;84.88;98783.31;5148692;27;20089;-91
2022/06/06 04:26:58;;;;;;;18.55;8.18;;;;;;;17.07;85.40;98784.38;5148992;27;20035;-90
2022/06/06 04:29:35;;;;;;;18.75;8.55;;;;;;;17.11;84.68;98785.06;5149104;27;20113;-90
2022/06/06 04:32:08;;;;;;;20.90;8.65;;;;;;;17.11;85.61;98787.75;5143581;27;20050;-89
2022/06/06 04:34:44;;;;;;;17.00;8.43;;;;;;;17.09;85.89;98778.88;5136964;27;20043;-91
2022/06/06 04:37:26;;;;;;;16.77;8.65;;;;;;;17.12;85.77;98781.44;5134719;27;20040;-90
2022/06/06 04:39:59;;;;;;;22.27;8.10;;;;;;;17.24;84.53;98791.53;5135396;27;20122;-91
2022/06/06 04:42:34;;;;;;;23.30;9.15;;;;;;;17.22;84.24;98777.31;5134315;27;20039;-90
2022/06/06 04:45:05;;;;;;;21.20;8.40;;;;;;;17.35;84.22;98783.75;5135697;27;20692;-90
2022/06/06 04:47:35;;;;;;;19.92;8.13;;;;;;;17.41;83.55;98786.09;5136256;27;20035;-90
2022/06/06 04:50:03;;;;;;;21.15;7.75;;;;;;;17.52;82.74;98792.69;5134309;27;20050;-89
2022/06/06 04:52:31;;;;;;;17.65;8.13;;;;;;;17.69;82.52;98789.94;5134992;27;20035;-90
2022/06/06 04:55:00;;;;;;;23.27;8.45;;;;;;;18.13;80.50;98780.31;5134873;27;20074;-91
2022/06/06 04:57:29;;;;;;;14.52;7.75;;;;;;;18.64;78.17;98773.69;5134629;27;20082;-90
2022/06/06 04:59:56;;;;;;;17.65;7.50;;;;;;;19.34;74.61;98793.75;5134022;27;20707;-91
2022/06/06 05:02:22;;;;;;;16.83;6.93;;;;;;;19.76;72.57;98771.31;5134698;27;20031;-91
2022/06/06 05:04:47;;;;;;;19.35;7.20;;;;;;;20.24;68.68;98776.28;5133976;27;20064;-89
2022/06/06 05:07:43;;;;;;;15.93;7.13;;;;;;;20.73;67.90;98781.09;5132828;27;20476;-90
2022/06/06 05:10:28;;;;;;;16.73;7.15;;;;;;;21.13;65.17;98781.03;5135362;27;20122;-90
2022/06/06 05:13:29;;;;;;;13.57;6.30;;;;;;;21.33;65.00;98783.19;5134563;27;20042;-91
2022/06/06 05:16:10;;;;;;;15.52;6.68;;;;;;;21.69;62.62;98778.00;5085316;27;20138;-91
2022/06/06 05:18:51;;;;;;;18.35;7.25;;;;;;;21.94;61.73;98774.34;5132372;27;20039;-91
2022/06/06 05:21:33;;;;;;;15.40;6.68;;;;;;;22.29;60.88;98777.19;5132737;27;20050;-90
2022/06/06 05:24:15;;;;;;;15.43;6.05;;;;;;;22.57;60.01;98785.91;5132149;27;20038;-91
2022/06/06 05:27:06;;;;;;;13.88;6.43;;;;;;;22.61;58.81;98784.69;5134542;27;20039;-91
2022/06/06 05:29:50;;;;;;;20.75;6.30;;;;;;;22.72;58.42;98783.88;5133403;27;20031;-91
2022/06/06 05:32:33;;;;;;;17.92;5.97;;;;;;;22.83;57.67;98770.34;5135492;27;20066;-93
2022/06/06 05:35:07;;;;;;;15.27;7.00;;;;;;;22.17;59.13;98780.78;5133502;27;20057;-89
2022/06/06 05:37:48;;;;;;;17.75;6.18;;;;;;;22.47;59.89;98784.91;5132585;27;20054;-90
2022/06/06 05:40:21;;;;;;;17.00;6.60;;;;;;;22.53;59.62;98788.00;5134839;27;20404;-88
2022/06/06 05:43:03;;;;;;;12.73;5.88;;;;;;;22.73;57.78;98772.94;5133168;27;20039;-88
2022/06/06 05:45:38;;;;;;;12.90;5.93;;;;;;;22.69;58.02;98781.41;5132947;27;20042;-89
2022/06/06 05:48:17;;;;;;;16.52;5.53;;;;;;;22.74;58.38;98787.34;5132678;27;20108;-91
2022/06/06 05:50:58;;;;;;;14.38;6.68;;;;;;;22.21;59.40;98776.00;5134691;27;20183;-87
2022/06/06 05:53:44;;;;;;;17.20;5.63;;;;;;;21.93;60.92;98780.75;5134455;27;20577;-92
2022/06/06 05:56:35;;;;;;;15.88;5.13;;;;;;;22.47;59.75;98790.34;5133738;27;20035;-89
2022/06/06 05:59:21;;;;;;;17.13;5.85;;;;;;;22.63;58.07;98784.59;5135136;27;20047;-89
2022/06/06 06:02:09;;;;;;;15.85;6.00;;;;;;;22.26;58.23;98788.25;5134530;27;20035;-91
2022/06/06 06:05:05;;;;;;;14.55;5.55;;;;;;;22.56;57.38;98784.19;5133434;27;20043;-93
2022/06/06 06:07:42;;;;;;;13.75;5.82;;;;;;;22.92;56.10;98785.03;5136596;27;20031;-90
2022/06/06 06:10:12;;;;;;;17.80;5.55;;;;;;;23.06;55.06;98771.31;5129096;27;20050;-91
2022/06/06 06:13:14;;;;;;;18.08;6.15;;;;;;;23.33;55.72;98786.38;5133981;27;20038;-91
2022/06/06 06:15:44;;;;;;;17.48;5.47;;;;;;;23.60;54.79;98779.75;5134458;27;20039;-90
2022/06/06 06:18:16;;;;;;;19.08;5.70;;;;;;;23.64;54.62;98768.53;5134007;27;20403;-91
2022/06/06 06:20:47;;;;;;;14.68;6.10;;;;;;;23.74;54.58;98782.22;5134004;27;20507;-90
2022/06/06 06:23:18;;;;;;;11.50;5.80;;;;;;;23.77;54.42;98787.44;5133254;27;20039;-89
2022/06/06 06:25:47;;;;;;;16.30;6.00;;;;;;;23.52;55.46;98778.50;5134402;27;20125;-89
2022/06/06 06:28:14;;;;;;;15.00;5.80;;;;;;;23.61;54.40;98782.34;5136992;27;20047;-91
2022/06/06 06:30:53;;;;;;;17.83;5.78;;;;;;;23.63;54.71;98780.34;5133735;27;20503;-89
2022/06/06 06:33:37;;;;;;;16.65;5.55;;;;;;;23.88;54.18;98779.28;5134252;27;20547;-90
2022/06/06 06:36:12;;;;;;;18.25;5.43;;;;;;;24.09;54.49;98759.47;5132224;27;20035;-90
2022/06/06 06:38:53;;;;;;;15.80;6.07;;;;;;;24.35;53.87;98760.88;5134327;27;20035;-89
2022/06/06 06:41:26;;;;;;;54.05;15.65;;;;;;;24.52;55.56;98773.06;5134484;27;20118;-90
2022/06/06 06:44:00;;;;;;;19.08;5.65;;;;;;;24.61;53.44;98765.97;5132881;27;20459;-90
2022/06/06 06:46:33;;;;;;;13.90;5.60;;;;;;;24.65;53.17;98751.13;5134006;27;20071;-91
2022/06/06 06:49:10;;;;;;;16.92;6.28;;;;;;;24.83;52.46;98765.03;5134076;27;20126;-91
2022/06/06 06:51:44;;;;;;;18.23;6.25;;;;;;;24.89;53.38;98750.03;5135573;27;20039;-92
2022/06/06 06:54:24;;;;;;;21.55;6.72;;;;;;;24.93;52.98;98756.94;5134589;27;20047;-93
2022/06/06 06:57:08;;;;;;;13.68;5.82;;;;;;;25.06;52.14;98762.16;5132629;27;20122;-90
2022/06/06 06:59:44;;;;;;;18.50;5.95;;;;;;;25.29;51.88;98769.22;5132946;27;20035;-92
2022/06/06 07:08:50;;;;;;;57.05;15.70;;;;;;;25.70;51.91;98771.97;5103515;27;20137;-89
2022/06/06 07:11:39;;;;;;;63.53;17.00;;;;;;;25.79;51.53;98777.47;5069107;28;21265;-88
2022/06/06 07:14:13;;;;;;;15.57;5.60;;;;;;;25.82;50.66;98768.16;5070264;28;20440;-91
2022/06/06 07:16:40;;;;;;;17.45;5.38;;;;;;;25.92;50.73;98765.50;5070932;28;20124;-90
2022/06/06 07:19:09;;;;;;;45.30;11.82;;;;;;;25.97;51.28;98769.50;5070145;28;20518;-88
2022/06/06 07:21:38;;;;;;;21.33;6.68;;;;;;;26.07;50.64;98765.94;5070505;28;20098;-89
2022/06/06 07:24:05;;;;;;;;;;;;;;;26.28;50.12;98763.97;5071109;28;20045;-91
2022/06/06 07:26:37;;;;;;;17.50;5.72;;;;;;;26.46;49.03;98763.28;5070398;28;20015;-91
2022/06/06 07:29:05;;;;;;;17.38;5.88;;;;;;;26.39;48.67;98743.91;5069860;28;20040;-89
2022/06/06 07:31:41;;;;;;;18.63;5.60;;;;;;;26.69;48.49;98755.72;5069787;28;20052;-90
2022/06/06 07:34:23;;;;;;;27.50;7.63;;;;;;;26.63;48.72;98738.94;5067275;28;20123;-91
2022/06/06 07:36:59;;;;;;;16.98;5.93;;;;;;;26.90;48.34;98750.09;5069814;28;20051;-89
2022/06/06 07:39:40;;;;;;;18.80;6.30;;;;;;;27.00;48.53;98753.66;5069299;28;20056;-91
2022/06/06 07:42:21;;;;;;;11.43;5.13;;;;;;;26.90;49.33;98755.56;5070599;28;20039;-92
2022/06/06 07:45:13;;;;;;;18.88;5.88;;;;;;;26.49;49.69;98743.91;5071024;28;20060;-90
2022/06/06 07:47:52;;;;;;;14.98;5.53;;;;;;;26.34;50.21;98746.19;5070530;28;20045;-89
2022/06/06 07:50:22;;;;;;;14.45;5.78;;;;;;;26.72;49.51;98742.66;5070019;28;20037;-90
2022/06/06 07:52:55;;;;;;;17.30;5.53;;;;;;;27.05;48.32;98746.75;5067830;28;20063;-90
2022/06/06 07:55:26;;;;;;;20.75;6.65;;;;;;;27.02;47.95;98729.81;5069141;28;20029;-91
2022/06/06 07:58:01;;;;;;;17.58;5.88;;;;;;;26.71;49.20;98734.59;5070297;28;20048;-90
2022/06/06 08:00:28;;;;;;;17.15;6.35;;;;;;;26.68;49.13;98740.38;5069355;28;20047;-90
2022/06/06 08:02:59;;;;;;;17.98;5.68;;;;;;;26.56;49.55;98742.38;5070778;28;20136;-90
2022/06/06 08:05:56;;;;;;;12.63;5.60;;;;;;;26.78;49.22;98739.34;5070360;28;20464;-93
2022/06/06 08:08:38;;;;;;;15.55;5.90;;;;;;;26.79;48.31;98730.16;5069981;28;20045;-92
2022/06/06 08:11:12;;;;;;;14.70;5.90;;;;;;;27.27;47.24;98738.41;5065749;28;20128;-91
2022/06/06 08:13:48;;;;;;;15.07;5.22;;;;;;;27.75;46.15;98737.34;5070617;28;20025;-93
2022/06/06 08:16:24;;;;;;;15.93;6.05;;;;;;;27.68;45.67;98736.25;5070440;28;20044;-91
2022/06/06 08:19:08;;;;;;;13.35;5.22;;;;;;;27.37;46.50;98741.94;5063011;28;20056;-91
2022/06/06 08:21:36;;;;;;;18.92;5.57;;;;;;;27.57;46.01;98737.28;5054760;28;20045;-89
2022/06/06 08:24:05;;;;;;;24.60;6.60;;;;;;;27.66;45.26;98725.47;5055368;28;20045;-91
2022/06/06 08:26:36;;;;;;;13.63;5.60;;;;;;;27.56;45.82;98744.59;5054969;28;20041;-91
2022/06/06 08:29:04;;;;;;;21.85;5.80;;;;;;;27.22;46.14;98747.06;5057201;28;20041;-90
2022/06/06 08:31:30;;;;;;;18.23;5.65;;;;;;;27.32;46.68;98734.22;5055830;28;20135;-90
2022/06/06 08:33:55;;;;;;;16.77;5.57;;;;;;;27.69;44.82;98741.53;5056244;28;20502;-90
2022/06/06 08:36:37;;;;;;;16.50;5.53;;;;;;;28.09;45.18;98732.16;5055576;28;20069;-93
2022/06/06 08:39:15;;;;;;;15.52;5.68;;;;;;;28.65;44.45;98741.13;5055805;28;20040;-91
2022/06/06 08:42:17;;;;;;;20.92;5.90;;;;;;;28.91;43.29;98718.38;5058756;28;20088;-91
2022/06/06 08:44:53;;;;;;;14.63;5.28;;;;;;;29.35;41.81;98726.59;5055169;28;20043;-90
2022/06/06 08:47:29;;;;;;;14.77;5.32;;;;;;;29.55;41.87;98730.81;5049400;28;20041;-90
2022/06/06 08:53:52;;;;;;;14.70;5.75;;;;;;;28.80;43.44;98735.91;5132317;27;20370;-91
2022/06/06 08:56:55;;;;;;;17.88;6.20;;;;;;;28.49;44.52;98738.22;5132883;27;20036;-90
2022/06/06 08:59:57;;;;;;;14.93;5.53;;;;;;;28.98;44.56;98731.28;5130038;28;20374;-90
2022/06/06 09:02:52;;;;;;;18.73;5.72;;;;;;;29.60;43.38;98731.19;5131074;27;20080;-90
2022/06/06 09:05:51;;;;;;;17.65;6.28;;;;;;;29.84;42.92;98729.59;5131349;28;20488;-90
2022/06/06 09:09:06;;;;;;;14.02;6.07;;;;;;;29.41;42.42;98720.47;5097706;27;20073;-92
2022/06/06 09:12:04;;;;;;;18.60;6.13;;;;;;;29.43;43.13;98732.09;5086727;27;20043;-91
2022/06/06 09:15:00;;;;;;;12.30;6.13;;;;;;;29.39;43.68;98722.50;5128005;28;20048;-89
2022/06/06 09:18:02;;;;;;;14.20;5.80;;;;;;;29.65;43.00;98734.28;5124516;28;20070;-89
2022/06/06 09:20:50;;;;;;;17.20;6.55;;;;;;;29.84;42.12;98726.84;5129266;27;20054;-89
2022/06/06 09:23:25;;;;;;;;;;;;;;;29.75;43.23;98723.22;5129863;28;20040;-89
2022/06/06 09:26:00;;;;;;;14.60;6.15;;;;;;;29.81;42.89;98716.22;5129260;28;19995;-90
2022/06/06 09:28:57;;;;;;;14.63;6.22;;;;;;;29.75;42.30;98705.91;5129747;28;20517;-90
2022/06/06 09:31:56;;;;;;;14.38;6.70;;;;;;;29.77;42.59;98723.06;5128266;28;20039;-90
2022/06/06 09:35:03;;;;;;;18.13;6.30;;;;;;;29.12;43.83;98721.66;5130559;28;20112;-90
2022/06/06 09:37:37;;;;;;;15.25;5.68;;;;;;;29.72;42.28;98720.81;5130114;28;20055;-91
2022/06/06 09:40:18;;;;;;;16.08;5.78;;;;;;;29.67;42.98;98723.16;5130913;27;20521;-89
2022/06/06 09:43:03;;;;;;;15.07;6.03;;;;;;;29.65;42.73;98722.47;5137833;27;20151;-91
2022/06/06 09:45:32;;;;;;;16.17;5.63;;;;;;;30.06;41.89;98708.94;5130214;28;20047;-90
2022/06/06 09:48:42;;;;;;;13.82;5.80;;;;;;;29.65;42.22;98725.22;5130523;28;20047;-91
2022/06/06 09:51:36;;;;;;;19.52;6.50;;;;;;;28.95;42.38;98706.09;5130255;27;20042;-88
2022/06/06 10:01:56;;;;;;;12.70;5.82;;;;;;;29.43;42.57;98701.97;5104610;27;20375;-91
2022/06/06 10:05:09;;;;;;;14.52;5.95;;;;;;;28.88;43.92;98704.00;5071161;28;20041;-90
2022/06/06 10:08:11;;;;;;;11.98;5.30;;;;;;;29.63;42.42;98708.06;5070072;28;20490;-89
2022/06/06 10:11:16;;;;;;;12.80;5.93;;;;;;;29.39;42.38;98709.66;5068165;28;20087;-92
2022/06/06 10:13:57;;;;;;;13.00;5.82;;;;;;;29.61;42.47;98708.22;5070905;28;20047;-91
2022/06/06 10:16:42;;;;;;;14.80;5.75;;;;;;;29.81;41.63;98708.00;5070173;28;20048;-92
2022/06/06 10:19:30;;;;;;;13.48;5.57;;;;;;;29.74;41.15;98706.94;5066920;28;20079;-90
2022/06/06 10:22:17;;;;;;;;;;;;;;;30.02;41.06;98719.38;5068596;28;20549;-91
2022/06/06 10:25:12;;;;;;;12.48;5.88;;;;;;;29.94;41.62;98721.25;5067509;28;19924;-90
2022/06/06 10:28:02;;;;;;;9.70;5.43;;;;;;;30.05;40.51;98720.91;5061385;28;20040;-91
2022/06/06 10:30:41;;;;;;;11.48;5.22;;;;;;;30.10;41.02;98722.16;5071236;28;20394;-93
2022/06/06 10:33:37;;;;;;;13.15;5.72;;;;;;;30.59;39.49;98715.03;5071058;28;20234;-92
2022/06/06 10:36:35;;;;;;;12.35;5.40;;;;;;;30.61;38.15;98707.50;5069855;28;20074;-91
2022/06/06 10:39:24;;;;;;;10.73;5.40;;;;;;;30.85;37.77;98698.41;5069717;28;20045;-91
2022/06/06 10:42:12;;;;;;;13.52;5.72;;;;;;;31.10;38.16;98699.25;5070738;28;20086;-95
2022/06/06 10:44:51;;;;;;;;;;;;;;;30.22;38.57;98713.59;5069050;28;20076;-92
2022/06/06 10:47:34;;;;;;;15.07;5.65;;;;;;;29.21;40.27;98704.28;5069230;28;19923;-94
2022/06/06 10:50:08;;;;;;;12.23;5.10;;;;;;;29.27;40.72;98691.78;5069928;28;20045;-91
2022/06/06 10:53:03;;;;;;;11.15;4.97;;;;;;;29.22;41.77;98700.50;5067173;28;20106;-92
2022/06/06 10:56:06;;;;;;;12.32;4.93;;;;;;;29.59;40.57;98704.78;5070078;28;20036;-92
2022/06/06 10:59:01;;;;;;;7.78;4.57;;;;;;;29.67;38.79;98699.34;5060680;28;20183;-91
2022/06/06 11:02:05;;;;;;;16.40;5.95;;;;;;;29.84;39.57;98707.66;5065928;28;20044;-92
2022/06/06 11:05:17;;;;;;;;;;;;;;;;;;;;;
2022/06/06 11:08:35;;;;;;;8.02;4.78;;;;;;;30.19;37.81;98703.81;4920101;29;20048;-93
2022/06/06 11:11:28;;;;;;;10.90;5.15;;;;;;;29.99;37.87;98699.66;4922158;29;20032;-91
2022/06/06 11:14:02;;;;;;;14.43;5.28;;;;;;;29.71;39.13;98699.91;4908947;29;20051;-93
2022/06/06 11:16:55;;;;;;;10.50;5.10;;;;;;;29.97;39.41;98688.88;4909578;29;20041;-91
2022/06/06 11:19:55;;;;;;;9.30;4.72;;;;;;;29.96;39.27;98695.38;4908755;29;20071;-90
2022/06/06 11:22:32;;;;;;;9.52;4.57;;;;;;;29.90;37.87;98679.56;4911394;29;20139;-90
2022/06/06 11:25:10;;;;;;;10.80;4.90;;;;;;;30.17;37.51;98683.94;4910536;29;20059;-92
2022/06/06 11:28:11;;;;;;;11.05;5.00;;;;;;;29.50;38.60;98692.09;4905940;29;20057;-91
2022/06/06 11:31:16;;;;;;;12.07;4.93;;;;;;;30.27;38.59;98678.28;4909091;29;20626;-92
2022/06/06 11:34:14;;;;;;;9.30;4.70;;;;;;;30.69;37.34;98674.56;4855445;29;20073;-90
2022/06/06 11:37:05;;;;;;;10.57;4.75;;;;;;;31.04;35.79;98667.84;4850625;29;20090;-91
2022/06/06 11:40:11;;;;;;;9.27;4.70;;;;;;;31.22;36.34;98670.38;4855430;29;20041;-92
2022/06/06 11:43:01;;;;;;;12.02;5.03;;;;;;;30.62;36.95;98665.28;4936362;29;20044;-90
2022/06/06 11:45:58;;;;;;;9.73;4.55;;;;;;;30.47;38.10;98651.41;5007735;28;20120;-90
2022/06/06 11:49:01;;;;;;;12.40;5.32;;;;;;;30.23;37.19;98661.31;5012427;28;20447;-91
2022/06/06 11:52:02;;;;;;;11.73;4.70;;;;;;;30.02;37.88;98664.53;5009217;28;20041;-91
2022/06/06 11:55:04;;;;;;;12.55;5.43;;;;;;;29.65;38.92;98665.78;5013896;28;20414;-90
2022/06/06 11:57:56;;;;;;;12.52;4.97;;;;;;;30.14;38.21;98661.47;5009196;28;20486;-93
2022/06/06 12:00:33;;;;;;;11.50;4.55;;;;;;;30.21;37.66;98640.56;5011989;28;20046;-93
2022/06/06 12:03:56;;;;;;;12.37;4.90;;;;;;;29.38;38.30;98664.09;5011969;28;20049;-89
2022/06/06 12:06:50;;;;;;;8.57;4.40;;;;;;;29.82;36.67;98657.63;5049279;28;20492;-91
2022/06/06 12:09:29;;;;;;;12.27;4.38;;;;;;;29.81;36.87;98654.03;5053306;28;20386;-91
2022/06/06 12:12:24;;;;;;;9.25;4.05;;;;;;;30.30;35.48;98651.41;5053492;28;20037;-90
2022/06/06 12:15:17;;;;;;;9.98;4.15;;;;;;;30.29;35.99;98657.06;5055743;28;20521;-93
2022/06/06 12:17:55;;;;;;;11.20;4.53;;;;;;;30.78;35.59;98643.31;5054834;28;20041;-92
2022/06/06 12:21:11;;;;;;;11.70;4.32;;;;;;;30.26;34.30;98647.25;5050450;28;20041;-90
2022/06/06 12:23:52;;;;;;;12.02;4.60;;;;;;;30.18;34.85;98630.78;4991984;28;20142;-89
2022/06/06 12:26:33;;;;;;;7.88;4.70;;;;;;;30.43;34.65;98634.44;4992033;28;20046;-90
2022/06/06 12:29:28;;;;;;;9.05;4.57;;;;;;;30.60;34.58;98634.41;4992573;28;20117;-90
2022/06/06 12:32:01;;;;;;;8.07;4.53;;;;;;;30.14;35.31;98645.00;4994638;28;20049;-89
2022/06/06 12:34:35;;;;;;;9.65;3.80;;;;;;;30.17;35.19;98629.09;4988535;28;20054;-91
2022/06/06 12:37:10;;;;;;;9.40;4.80;;;;;;;29.95;34.57;98641.56;4993215;28;20045;-92
2022/06/06 12:39:52;;;;;;;7.63;4.05;;;;;;;29.73;33.59;98621.09;4992163;28;20098;-91
2022/06/06 12:42:28;;;;;;;7.20;4.00;;;;;;;29.53;34.00;98625.13;4991556;28;20424;-91
2022/06/06 12:45:19;;;;;;;8.55;3.40;;;;;;;29.61;30.02;98631.50;4991725;28;20060;-91
2022/06/06 12:48:00;;;;;;;6.72;3.10;;;;;;;30.04;30.45;98613.13;4993970;28;20129;-90
2022/06/06 12:50:36;;;;;;;10.43;3.80;;;;;;;30.13;33.30;98630.44;4993415;28;20034;-91